Terminal Aerodrome Forecast
Issued by NWS

Home | Current Version | Previous Version | Text Only | Print | Product List | Glossary On
Versions: 1 2 3 4 5 6 7 8 9 10 11 12 13 14 15 16 17
751
FTUS43 KIWX 290520
TAFSBN
TAF
KSBN 290520Z 2906/3006 VRB04KT 6SM BR SCT250
      TEMPO 2908/2912 3SM BR SCT005
     FM291300 09006KT P6SM FEW040 SCT250=

USA.gov is the U.S. government's official web portal to all federal, state and local government web resources and services.